Alexandria, MN (56308)

10:02 PM CST on January 19, 2017 (GMT -0600)
Burgen Sunrise | | Change Station
Active Advisory: Dense Fog Advisory

Elev 1398 ft 45.86 °N, 95.35 °W | Updated 11 seconds ago

Mist
Mist
36.0 °F
Feels Like 36 °F
N
1.8
Wind Variable Wind from SE
Gusts 2.5 mph

Today
High -- | Low -- °F
--% Chance of Precip.
Yesterday
High -- | Low -- °F
Precip. -- in
Pressure 29.68 in
Visibility 0.8 miles
Clouds
Windchill 36 °F
Dew Point 34 °F
Humidity 94%
Rainfall 0.02 in
Snow Depth Not available.
7:56 AM 5:09 PM
Waning Gibbous, 48% visible
METAR KAXN 200353Z AUTO 14008KT 3/4SM BR VV002 01/01 A2963 RMK AO2 SLP050 T00110011
Pressure 29.68 in
Visibility 0.8 miles
Clouds
Windchill 36 °F
Dew Point 34 °F
Humidity 94%
Rainfall 0.02 in
Snow Depth Not available.
7:56 AM 5:09 PM
Waning Gibbous, 48% visible
METAR KAXN 200353Z AUTO 14008KT 3/4SM BR VV002 01/01 A2963 RMK AO2 SLP050 T00110011

Get Your Daily Forecast Email!

Thanks for signing up!

Be on the lookout for a verification email in your inbox.

You'll start receiving the daily forecast at 8 AM.

×

10-Day Weather Forecast

Almanac

Astronomy

Jan. 19, 2017 Rise Set
Actual Time
Civil Twilight
Nautical Twilight
Astronomical Twilight
Moon
Length of Visible Light
Length of Day
Tomorrow will be .
, % of the Moon is Illuminated

Today's Extremes

State Highs State Lows

Community

WunderPhotos

Upload Photos

1,962,540 photos uploaded!

WunderBlog® & News

Nearby

Air Quality

  Air Quality AQ Index Pollutant
Not available.

Snow Depth

Station Depth Elevation

Earthquake Activity

City Distance Mag. Time & Date
Minimum magnitude displayed is 2.5.

Coastal Water Temperatures

Place Temperature

Stations

Nearby Weather Stations

Station Location Temp. Windchill Dew Point Humidity Wind Precip. Elev Updated Type
                   

Watches & Warnings

Dense Fog Advisory
Issued: 6:55 PM CST Jan. 19, 2017 – National Weather Service

... Dense fog advisory in effect until noon CST Friday...

The National Weather Service in Twin Cities/Chanhassen has issued
a dense fog advisory, which is in effect until noon CST Friday.

* Visibility... areas of fog producing one quarter mile or less
visibility from later this evening through Friday morning.

* Impacts... low visibilities will result in difficult driving
conditions.

Precautionary/preparedness actions...

A dense fog advisory means visibilities will frequently be
reduced to less than one quarter mile. If driving... slow down...
use your headlights... and leave plenty of distance ahead of you.